sensor_id;sensor_type;location;lat;lon;timestamp;temperature;humidity
17495;DHT22;8864;51.970;4.614;2024-03-02T00:01:36;16.50;81.30
17495;DHT22;8864;51.970;4.614;2024-03-02T00:04:05;16.50;81.30
17495;DHT22;8864;51.970;4.614;2024-03-02T00:06:35;16.50;81.30
17495;DHT22;8864;51.970;4.614;2024-03-02T00:09:03;16.50;81.30
17495;DHT22;8864;51.970;4.614;2024-03-02T00:11:30;16.50;81.40
17495;DHT22;8864;51.970;4.614;2024-03-02T00:13:57;16.50;81.40
17495;DHT22;8864;51.970;4.614;2024-03-02T00:16:30;16.50;81.40
17495;DHT22;8864;51.970;4.614;2024-03-02T00:19:01;16.50;81.40
17495;DHT22;8864;51.970;4.614;2024-03-02T00:21:30;16.40;81.40
17495;DHT22;8864;51.970;4.614;2024-03-02T00:23:58;16.50;81.50
17495;DHT22;8864;51.970;4.614;2024-03-02T00:26:25;16.50;81.50
17495;DHT22;8864;51.970;4.614;2024-03-02T00:28:54;16.40;81.40
17495;DHT22;8864;51.970;4.614;2024-03-02T00:31:22;16.40;81.50
17495;DHT22;8864;51.970;4.614;2024-03-02T00:33:51;16.40;81.50
17495;DHT22;8864;51.970;4.614;2024-03-02T00:36:24;16.40;81.50
17495;DHT22;8864;51.970;4.614;2024-03-02T00:38:53;16.40;81.60
17495;DHT22;8864;51.970;4.614;2024-03-02T00:41:22;16.40;81.60
17495;DHT22;8864;51.970;4.614;2024-03-02T00:43:57;16.40;81.60
17495;DHT22;8864;51.970;4.614;2024-03-02T00:46:27;16.40;81.60
17495;DHT22;8864;51.970;4.614;2024-03-02T00:48:58;16.40;81.60
17495;DHT22;8864;51.970;4.614;2024-03-02T00:51:27;16.40;81.60
17495;DHT22;8864;51.970;4.614;2024-03-02T00:53:57;16.40;81.70
17495;DHT22;8864;51.970;4.614;2024-03-02T00:56:25;16.40;81.70
17495;DHT22;8864;51.970;4.614;2024-03-02T00:58:52;16.40;81.70
17495;DHT22;8864;51.970;4.614;2024-03-02T01:01:19;16.40;81.70
17495;DHT22;8864;51.970;4.614;2024-03-02T01:03:47;16.40;81.70
17495;DHT22;8864;51.970;4.614;2024-03-02T01:06:14;16.40;81.70
17495;DHT22;8864;51.970;4.614;2024-03-02T01:08:41;16.40;81.70
17495;DHT22;8864;51.970;4.614;2024-03-02T01:11:10;16.40;81.70
17495;DHT22;8864;51.970;4.614;2024-03-02T01:13:37;16.40;81.70
17495;DHT22;8864;51.970;4.614;2024-03-02T01:16:05;16.40;81.70
17495;DHT22;8864;51.970;4.614;2024-03-02T01:18:32;16.40;81.70
17495;DHT22;8864;51.970;4.614;2024-03-02T01:20:59;16.40;81.70
17495;DHT22;8864;51.970;4.614;2024-03-02T01:23:27;16.40;81.70
17495;DHT22;8864;51.970;4.614;2024-03-02T01:25:54;16.40;81.70
17495;DHT22;8864;51.970;4.614;2024-03-02T01:28:22;16.40;81.70
17495;DHT22;8864;51.970;4.614;2024-03-02T01:30:49;16.40;81.70
17495;DHT22;8864;51.970;4.614;2024-03-02T01:33:17;16.30;81.60
17495;DHT22;8864;51.970;4.614;2024-03-02T01:35:44;16.40;81.60
17495;DHT22;8864;51.970;4.614;2024-03-02T01:38:11;16.40;81.70
17495;DHT22;8864;51.970;4.614;2024-03-02T01:40:38;16.40;81.70
17495;DHT22;8864;51.970;4.614;2024-03-02T01:43:05;16.40;81.60
17495;DHT22;8864;51.970;4.614;2024-03-02T01:45:34;16.40;81.60
17495;DHT22;8864;51.970;4.614;2024-03-02T01:48:03;16.40;81.60
17495;DHT22;8864;51.970;4.614;2024-03-02T01:50:32;16.40;81.60
17495;DHT22;8864;51.970;4.614;2024-03-02T01:53:01;16.30;81.40
17495;DHT22;8864;51.970;4.614;2024-03-02T01:55:28;16.30;81.40
17495;DHT22;8864;51.970;4.614;2024-03-02T01:57:56;16.40;81.50
17495;DHT22;8864;51.970;4.614;2024-03-02T02:00:23;16.40;81.50
17495;DHT22;8864;51.970;4.614;2024-03-02T02:02:53;16.30;82.10
17495;DHT22;8864;51.970;4.614;2024-03-02T02:05:20;16.30;81.40
17495;DHT22;8864;51.970;4.614;2024-03-02T02:07:47;16.30;81.30
17495;DHT22;8864;51.970;4.614;2024-03-02T02:10:14;16.40;81.40
17495;DHT22;8864;51.970;4.614;2024-03-02T02:12:41;16.30;81.30
17495;DHT22;8864;51.970;4.614;2024-03-02T02:15:25;16.30;81.30
17495;DHT22;8864;51.970;4.614;2024-03-02T02:17:53;16.30;81.20
17495;DHT22;8864;51.970;4.614;2024-03-02T02:20:20;16.30;81.20
17495;DHT22;8864;51.970;4.614;2024-03-02T02:22:56;16.30;81.20
17495;DHT22;8864;51.970;4.614;2024-03-02T02:25:24;16.30;81.20
17495;DHT22;8864;51.970;4.614;2024-03-02T02:27:51;16.30;81.10
17495;DHT22;8864;51.970;4.614;2024-03-02T02:30:21;16.30;81.10
17495;DHT22;8864;51.970;4.614;2024-03-02T02:32:48;16.30;81.10
17495;DHT22;8864;51.970;4.614;2024-03-02T02:35:15;16.30;81.10
17495;DHT22;8864;51.970;4.614;2024-03-02T02:37:43;16.30;81.10
17495;DHT22;8864;51.970;4.614;2024-03-02T02:40:12;16.30;81.10
17495;DHT22;8864;51.970;4.614;2024-03-02T02:42:40;16.30;81.10
17495;DHT22;8864;51.970;4.614;2024-03-02T02:45:07;16.30;81.10
17495;DHT22;8864;51.970;4.614;2024-03-02T02:47:34;16.30;81.00
17495;DHT22;8864;51.970;4.614;2024-03-02T02:50:02;16.30;81.10
17495;DHT22;8864;51.970;4.614;2024-03-02T02:52:32;16.30;81.00
17495;DHT22;8864;51.970;4.614;2024-03-02T02:55:02;16.30;81.00
17495;DHT22;8864;51.970;4.614;2024-03-02T02:57:31;16.30;81.00
17495;DHT22;8864;51.970;4.614;2024-03-02T03:00:02;16.30;81.00
17495;DHT22;8864;51.970;4.614;2024-03-02T03:02:36;16.30;80.90
17495;DHT22;8864;51.970;4.614;2024-03-02T03:05:03;16.30;80.90
17495;DHT22;8864;51.970;4.614;2024-03-02T03:07:31;16.30;80.90
17495;DHT22;8864;51.970;4.614;2024-03-02T03:09:58;16.30;80.90
17495;DHT22;8864;51.970;4.614;2024-03-02T03:12:25;16.30;80.80
17495;DHT22;8864;51.970;4.614;2024-03-02T03:14:53;16.30;80.80
17495;DHT22;8864;51.970;4.614;2024-03-02T03:17:21;16.30;80.80
17495;DHT22;8864;51.970;4.614;2024-03-02T03:19:48;16.30;80.80
17495;DHT22;8864;51.970;4.614;2024-03-02T03:22:15;16.30;80.70
17495;DHT22;8864;51.970;4.614;2024-03-02T03:24:42;16.30;80.80
17495;DHT22;8864;51.970;4.614;2024-03-02T03:27:10;16.30;80.70
17495;DHT22;8864;51.970;4.614;2024-03-02T03:29:37;16.30;80.70
17495;DHT22;8864;51.970;4.614;2024-03-02T03:32:06;16.30;80.60
17495;DHT22;8864;51.970;4.614;2024-03-02T03:34:33;16.30;80.70
17495;DHT22;8864;51.970;4.614;2024-03-02T03:37:01;16.30;80.60
17495;DHT22;8864;51.970;4.614;2024-03-02T03:39:28;16.30;80.60
17495;DHT22;8864;51.970;4.614;2024-03-02T03:41:55;16.30;80.60
17495;DHT22;8864;51.970;4.614;2024-03-02T03:44:22;16.30;80.60
17495;DHT22;8864;51.970;4.614;2024-03-02T03:46:50;16.30;80.60
17495;DHT22;8864;51.970;4.614;2024-03-02T03:49:18;16.30;80.60
17495;DHT22;8864;51.970;4.614;2024-03-02T03:51:46;16.30;80.50
17495;DHT22;8864;51.970;4.614;2024-03-02T03:54:13;16.30;80.60
17495;DHT22;8864;51.970;4.614;2024-03-02T03:56:40;16.30;80.50
17495;DHT22;8864;51.970;4.614;2024-03-02T03:59:07;16.30;80.50
17495;DHT22;8864;51.970;4.614;2024-03-02T04:01:34;16.30;80.50
17495;DHT22;8864;51.970;4.614;2024-03-02T04:04:00;16.30;80.50
17495;DHT22;8864;51.970;4.614;2024-03-02T04:06:30;16.30;80.40
17495;DHT22;8864;51.970;4.614;2024-03-02T04:08:57;16.30;80.40
17495;DHT22;8864;51.970;4.614;2024-03-02T04:11:24;16.30;80.40
17495;DHT22;8864;51.970;4.614;2024-03-02T04:13:51;16.30;80.40
17495;DHT22;8864;51.970;4.614;2024-03-02T04:16:18;16.30;80.30
17495;DHT22;8864;51.970;4.614;2024-03-02T04:18:45;16.30;80.30
17495;DHT22;8864;51.970;4.614;2024-03-02T04:21:12;16.30;80.30
17495;DHT22;8864;51.970;4.614;2024-03-02T04:23:40;16.20;80.60
17495;DHT22;8864;51.970;4.614;2024-03-02T04:26:07;16.30;80.20
17495;DHT22;8864;51.970;4.614;2024-03-02T04:28:34;16.30;80.20
17495;DHT22;8864;51.970;4.614;2024-03-02T04:31:01;16.30;80.20
17495;DHT22;8864;51.970;4.614;2024-03-02T04:33:28;16.30;80.10
17495;DHT22;8864;51.970;4.614;2024-03-02T04:35:55;16.30;80.10
17495;DHT22;8864;51.970;4.614;2024-03-02T04:38:23;16.20;80.00
17495;DHT22;8864;51.970;4.614;2024-03-02T04:40:51;16.20;80.00
17495;DHT22;8864;51.970;4.614;2024-03-02T04:43:18;16.20;79.80
17495;DHT22;8864;51.970;4.614;2024-03-02T04:45:45;16.30;79.90
17495;DHT22;8864;51.970;4.614;2024-03-02T04:48:12;16.30;80.00
17495;DHT22;8864;51.970;4.614;2024-03-02T04:50:39;16.20;79.90
17495;DHT22;8864;51.970;4.614;2024-03-02T04:53:06;16.20;79.90
17495;DHT22;8864;51.970;4.614;2024-03-02T04:55:33;16.20;79.90
17495;DHT22;8864;51.970;4.614;2024-03-02T04:58:30;16.20;79.90
17495;DHT22;8864;51.970;4.614;2024-03-02T05:00:58;16.20;79.90
17495;DHT22;8864;51.970;4.614;2024-03-02T05:03:25;16.20;79.90
17495;DHT22;8864;51.970;4.614;2024-03-02T05:05:52;16.20;79.90
17495;DHT22;8864;51.970;4.614;2024-03-02T05:08:19;16.20;79.90
17495;DHT22;8864;51.970;4.614;2024-03-02T05:10:46;16.20;79.90
17495;DHT22;8864;51.970;4.614;2024-03-02T05:13:13;16.20;79.70
17495;DHT22;8864;51.970;4.614;2024-03-02T05:15:40;16.20;79.80
17495;DHT22;8864;51.970;4.614;2024-03-02T05:18:07;16.20;79.70
17495;DHT22;8864;51.970;4.614;2024-03-02T05:20:34;16.20;79.80
17495;DHT22;8864;51.970;4.614;2024-03-02T05:23:01;16.20;79.70
17495;DHT22;8864;51.970;4.614;2024-03-02T05:25:27;16.20;79.70
17495;DHT22;8864;51.970;4.614;2024-03-02T05:27:54;16.20;79.70
17495;DHT22;8864;51.970;4.614;2024-03-02T05:30:21;16.20;79.70
17495;DHT22;8864;51.970;4.614;2024-03-02T05:32:50;16.20;79.70
17495;DHT22;8864;51.970;4.614;2024-03-02T05:35:16;16.20;79.70
17495;DHT22;8864;51.970;4.614;2024-03-02T05:37:44;16.20;79.70
17495;DHT22;8864;51.970;4.614;2024-03-02T05:40:11;16.20;79.70
17495;DHT22;8864;51.970;4.614;2024-03-02T05:42:38;16.20;79.70
17495;DHT22;8864;51.970;4.614;2024-03-02T05:45:07;16.20;79.60
17495;DHT22;8864;51.970;4.614;2024-03-02T05:47:34;16.20;79.60
17495;DHT22;8864;51.970;4.614;2024-03-02T05:50:03;16.20;79.50
17495;DHT22;8864;51.970;4.614;2024-03-02T05:52:31;16.20;79.50
17495;DHT22;8864;51.970;4.614;2024-03-02T05:54:57;16.20;79.40
17495;DHT22;8864;51.970;4.614;2024-03-02T05:57:25;16.20;79.50
17495;DHT22;8864;51.970;4.614;2024-03-02T06:00:11;16.20;79.50
17495;DHT22;8864;51.970;4.614;2024-03-02T06:02:39;16.20;79.60
17495;DHT22;8864;51.970;4.614;2024-03-02T06:05:08;16.20;79.40
17495;DHT22;8864;51.970;4.614;2024-03-02T06:07:35;16.20;79.40
17495;DHT22;8864;51.970;4.614;2024-03-02T06:10:02;16.20;79.40
17495;DHT22;8864;51.970;4.614;2024-03-02T06:12:31;16.20;80.00
17495;DHT22;8864;51.970;4.614;2024-03-02T06:14:58;16.20;79.30
17495;DHT22;8864;51.970;4.614;2024-03-02T06:17:25;16.20;79.20
17495;DHT22;8864;51.970;4.614;2024-03-02T06:19:52;16.20;79.20
17495;DHT22;8864;51.970;4.614;2024-03-02T06:22:20;16.20;79.10
17495;DHT22;8864;51.970;4.614;2024-03-02T06:24:48;16.20;79.10
17495;DHT22;8864;51.970;4.614;2024-03-02T06:27:15;16.20;79.00
17495;DHT22;8864;51.970;4.614;2024-03-02T06:29:42;16.20;78.90
17495;DHT22;8864;51.970;4.614;2024-03-02T06:32:09;16.20;78.80
17495;DHT22;8864;51.970;4.614;2024-03-02T06:34:36;16.20;78.90
17495;DHT22;8864;51.970;4.614;2024-03-02T06:37:03;16.20;78.80
17495;DHT22;8864;51.970;4.614;2024-03-02T06:39:31;16.20;78.70
17495;DHT22;8864;51.970;4.614;2024-03-02T06:42:00;16.20;78.60
17495;DHT22;8864;51.970;4.614;2024-03-02T06:44:27;16.20;78.50
17495;DHT22;8864;51.970;4.614;2024-03-02T06:46:53;16.20;78.30
17495;DHT22;8864;51.970;4.614;2024-03-02T06:49:20;16.20;78.20
17495;DHT22;8864;51.970;4.614;2024-03-02T06:51:47;16.20;78.00
17495;DHT22;8864;51.970;4.614;2024-03-02T06:54:15;16.20;77.90
17495;DHT22;8864;51.970;4.614;2024-03-02T06:56:43;16.20;77.60
17495;DHT22;8864;51.970;4.614;2024-03-02T06:59:10;16.20;77.70
17495;DHT22;8864;51.970;4.614;2024-03-02T07:01:37;16.20;77.40
17495;DHT22;8864;51.970;4.614;2024-03-02T07:04:04;16.20;77.30
17495;DHT22;8864;51.970;4.614;2024-03-02T07:06:32;16.20;77.30
17495;DHT22;8864;51.970;4.614;2024-03-02T07:08:59;16.20;77.20
17495;DHT22;8864;51.970;4.614;2024-03-02T07:11:26;16.20;77.00
17495;DHT22;8864;51.970;4.614;2024-03-02T07:13:54;16.20;77.00
17495;DHT22;8864;51.970;4.614;2024-03-02T07:16:21;16.20;76.80
17495;DHT22;8864;51.970;4.614;2024-03-02T07:18:54;16.20;76.80
17495;DHT22;8864;51.970;4.614;2024-03-02T07:21:22;16.20;76.60
17495;DHT22;8864;51.970;4.614;2024-03-02T07:23:49;16.20;76.80
17495;DHT22;8864;51.970;4.614;2024-03-02T07:26:17;16.20;76.80
17495;DHT22;8864;51.970;4.614;2024-03-02T07:28:45;16.20;76.80
17495;DHT22;8864;51.970;4.614;2024-03-02T07:31:14;16.10;76.70
17495;DHT22;8864;51.970;4.614;2024-03-02T07:33:44;16.20;76.60
17495;DHT22;8864;51.970;4.614;2024-03-02T07:36:11;16.20;76.80
17495;DHT22;8864;51.970;4.614;2024-03-02T07:38:38;16.20;76.80
17495;DHT22;8864;51.970;4.614;2024-03-02T07:41:06;16.20;76.90
17495;DHT22;8864;51.970;4.614;2024-03-02T07:43:33;16.20;76.90
17495;DHT22;8864;51.970;4.614;2024-03-02T07:46:00;16.20;76.80
17495;DHT22;8864;51.970;4.614;2024-03-02T07:48:30;16.20;77.00
17495;DHT22;8864;51.970;4.614;2024-03-02T07:50:57;16.20;76.90
17495;DHT22;8864;51.970;4.614;2024-03-02T07:53:24;16.20;77.10
17495;DHT22;8864;51.970;4.614;2024-03-02T07:55:57;16.30;78.30
17495;DHT22;8864;51.970;4.614;2024-03-02T07:58:28;16.30;78.50
17495;DHT22;8864;51.970;4.614;2024-03-02T08:00:56;16.30;78.50
17495;DHT22;8864;51.970;4.614;2024-03-02T08:03:23;16.30;78.40
17495;DHT22;8864;51.970;4.614;2024-03-02T08:05:52;16.30;78.40
17495;DHT22;8864;51.970;4.614;2024-03-02T08:08:19;16.30;78.50
17495;DHT22;8864;51.970;4.614;2024-03-02T08:10:46;16.30;78.50
17495;DHT22;8864;51.970;4.614;2024-03-02T08:13:14;16.30;78.50
17495;DHT22;8864;51.970;4.614;2024-03-02T08:15:41;16.30;78.60
17495;DHT22;8864;51.970;4.614;2024-03-02T08:18:08;16.30;78.70
17495;DHT22;8864;51.970;4.614;2024-03-02T08:20:35;16.30;78.80
17495;DHT22;8864;51.970;4.614;2024-03-02T08:23:04;16.30;78.80
17495;DHT22;8864;51.970;4.614;2024-03-02T08:25:31;16.30;78.80
17495;DHT22;8864;51.970;4.614;2024-03-02T08:27:58;16.30;78.90
17495;DHT22;8864;51.970;4.614;2024-03-02T08:30:25;16.30;79.00
17495;DHT22;8864;51.970;4.614;2024-03-02T08:32:52;16.40;79.10
17495;DHT22;8864;51.970;4.614;2024-03-02T08:35:19;16.30;79.10
17495;DHT22;8864;51.970;4.614;2024-03-02T08:37:47;16.40;79.30
17495;DHT22;8864;51.970;4.614;2024-03-02T08:40:16;16.40;79.30
17495;DHT22;8864;51.970;4.614;2024-03-02T08:42:43;16.40;79.40
17495;DHT22;8864;51.970;4.614;2024-03-02T08:45:11;16.40;79.50
17495;DHT22;8864;51.970;4.614;2024-03-02T08:47:38;16.40;79.60
17495;DHT22;8864;51.970;4.614;2024-03-02T08:50:06;16.40;79.70
17495;DHT22;8864;51.970;4.614;2024-03-02T08:52:34;16.40;79.70
17495;DHT22;8864;51.970;4.614;2024-03-02T08:55:01;16.40;79.70
17495;DHT22;8864;51.970;4.614;2024-03-02T08:57:30;16.40;79.90
17495;DHT22;8864;51.970;4.614;2024-03-02T08:59:57;16.40;80.00
17495;DHT22;8864;51.970;4.614;2024-03-02T09:02:24;16.50;80.20
17495;DHT22;8864;51.970;4.614;2024-03-02T09:04:51;16.50;80.30
17495;DHT22;8864;51.970;4.614;2024-03-02T09:07:18;16.50;80.20
17495;DHT22;8864;51.970;4.614;2024-03-02T09:09:45;16.50;80.30
17495;DHT22;8864;51.970;4.614;2024-03-02T09:12:12;16.50;80.40
17495;DHT22;8864;51.970;4.614;2024-03-02T09:14:41;16.50;80.40
17495;DHT22;8864;51.970;4.614;2024-03-02T09:17:08;16.50;80.50
17495;DHT22;8864;51.970;4.614;2024-03-02T09:19:37;16.50;80.50
17495;DHT22;8864;51.970;4.614;2024-03-02T09:22:04;16.50;80.50
17495;DHT22;8864;51.970;4.614;2024-03-02T09:24:31;16.50;80.50
17495;DHT22;8864;51.970;4.614;2024-03-02T09:26:58;16.50;80.60
17495;DHT22;8864;51.970;4.614;2024-03-02T09:29:25;16.60;80.60
17495;DHT22;8864;51.970;4.614;2024-03-02T09:31:53;16.60;80.60
17495;DHT22;8864;51.970;4.614;2024-03-02T09:34:21;16.60;80.60
17495;DHT22;8864;51.970;4.614;2024-03-02T09:36:48;16.60;80.70
17495;DHT22;8864;51.970;4.614;2024-03-02T09:39:16;16.60;80.80
17495;DHT22;8864;51.970;4.614;2024-03-02T09:41:43;16.70;80.80
17495;DHT22;8864;51.970;4.614;2024-03-02T09:44:10;16.60;80.90
17495;DHT22;8864;51.970;4.614;2024-03-02T09:46:38;16.60;80.90
17495;DHT22;8864;51.970;4.614;2024-03-02T09:49:06;16.60;81.00
17495;DHT22;8864;51.970;4.614;2024-03-02T09:51:33;16.60;81.00
17495;DHT22;8864;51.970;4.614;2024-03-02T09:54:01;16.70;81.10
17495;DHT22;8864;51.970;4.614;2024-03-02T09:56:28;16.70;81.10
17495;DHT22;8864;51.970;4.614;2024-03-02T09:58:55;16.70;81.10
17495;DHT22;8864;51.970;4.614;2024-03-02T10:01:22;16.70;81.10
17495;DHT22;8864;51.970;4.614;2024-03-02T10:03:49;16.70;81.10
17495;DHT22;8864;51.970;4.614;2024-03-02T10:06:24;16.70;81.10
17495;DHT22;8864;51.970;4.614;2024-03-02T10:08:51;16.70;81.00
17495;DHT22;8864;51.970;4.614;2024-03-02T10:11:28;16.70;81.00
17495;DHT22;8864;51.970;4.614;2024-03-02T10:14:06;16.70;81.10
17495;DHT22;8864;51.970;4.614;2024-03-02T10:16:35;16.70;81.10
17495;DHT22;8864;51.970;4.614;2024-03-02T10:19:16;16.70;81.10
17495;DHT22;8864;51.970;4.614;2024-03-02T10:21:46;16.70;81.10
17495;DHT22;8864;51.970;4.614;2024-03-02T10:24:13;16.70;81.10
17495;DHT22;8864;51.970;4.614;2024-03-02T10:26:40;16.70;81.10
17495;DHT22;8864;51.970;4.614;2024-03-02T10:29:08;16.80;82.60
17495;DHT22;8864;51.970;4.614;2024-03-02T10:31:37;16.80;82.30
17495;DHT22;8864;51.970;4.614;2024-03-02T10:34:05;16.80;82.30
17495;DHT22;8864;51.970;4.614;2024-03-02T10:36:32;16.80;82.20
17495;DHT22;8864;51.970;4.614;2024-03-02T10:39:03;16.70;82.00
17495;DHT22;8864;51.970;4.614;2024-03-02T10:41:33;16.80;82.00
17495;DHT22;8864;51.970;4.614;2024-03-02T10:44:02;16.80;82.20
17495;DHT22;8864;51.970;4.614;2024-03-02T10:46:31;16.80;82.00
17495;DHT22;8864;51.970;4.614;2024-03-02T10:49:00;16.80;81.90
17495;DHT22;8864;51.970;4.614;2024-03-02T10:51:28;16.80;81.80
17495;DHT22;8864;51.970;4.614;2024-03-02T10:53:57;16.80;81.70
17495;DHT22;8864;51.970;4.614;2024-03-02T10:56:30;16.80;81.60
17495;DHT22;8864;51.970;4.614;2024-03-02T10:59:02;16.80;81.40
17495;DHT22;8864;51.970;4.614;2024-03-02T11:01:32;16.80;81.20
17495;DHT22;8864;51.970;4.614;2024-03-02T11:04:00;16.80;80.90
17495;DHT22;8864;51.970;4.614;2024-03-02T11:06:29;16.80;80.80
17495;DHT22;8864;51.970;4.614;2024-03-02T11:09:00;16.80;80.60
17495;DHT22;8864;51.970;4.614;2024-03-02T11:11:32;16.80;80.60
17495;DHT22;8864;51.970;4.614;2024-03-02T11:14:04;16.80;80.40
17495;DHT22;8864;51.970;4.614;2024-03-02T11:16:36;16.80;80.30
17495;DHT22;8864;51.970;4.614;2024-03-02T11:19:05;16.80;80.00
17495;DHT22;8864;51.970;4.614;2024-03-02T11:21:33;16.80;79.90
17495;DHT22;8864;51.970;4.614;2024-03-02T11:24:00;16.80;79.70
17495;DHT22;8864;51.970;4.614;2024-03-02T11:26:28;16.80;79.60
17495;DHT22;8864;51.970;4.614;2024-03-02T11:28:57;16.80;79.40
17495;DHT22;8864;51.970;4.614;2024-03-02T11:31:57;16.80;79.10
17495;DHT22;8864;51.970;4.614;2024-03-02T11:34:29;16.80;79.00
17495;DHT22;8864;51.970;4.614;2024-03-02T11:36:56;16.90;79.00
17495;DHT22;8864;51.970;4.614;2024-03-02T11:39:24;16.80;78.80
17495;DHT22;8864;51.970;4.614;2024-03-02T11:41:51;16.80;78.60
17495;DHT22;8864;51.970;4.614;2024-03-02T11:44:20;16.80;78.50
17495;DHT22;8864;51.970;4.614;2024-03-02T11:46:51;16.80;78.50
17495;DHT22;8864;51.970;4.614;2024-03-02T11:49:37;16.80;78.60
17495;DHT22;8864;51.970;4.614;2024-03-02T11:52:05;16.90;78.50
17495;DHT22;8864;51.970;4.614;2024-03-02T11:54:33;16.90;77.70
17495;DHT22;8864;51.970;4.614;2024-03-02T11:57:02;16.90;77.30
17495;DHT22;8864;51.970;4.614;2024-03-02T11:59:30;16.90;77.30
17495;DHT22;8864;51.970;4.614;2024-03-02T12:01:58;16.90;76.60
17495;DHT22;8864;51.970;4.614;2024-03-02T12:04:26;16.90;77.00
17495;DHT22;8864;51.970;4.614;2024-03-02T12:06:55;16.90;76.80
17495;DHT22;8864;51.970;4.614;2024-03-02T12:09:25;16.90;76.60
17495;DHT22;8864;51.970;4.614;2024-03-02T12:12:02;16.90;76.80
17495;DHT22;8864;51.970;4.614;2024-03-02T12:14:31;16.90;76.70
17495;DHT22;8864;51.970;4.614;2024-03-02T12:16:58;16.90;76.60
17495;DHT22;8864;51.970;4.614;2024-03-02T12:19:25;16.90;76.60
17495;DHT22;8864;51.970;4.614;2024-03-02T12:21:53;16.90;76.50
17495;DHT22;8864;51.970;4.614;2024-03-02T12:24:20;16.90;76.30
17495;DHT22;8864;51.970;4.614;2024-03-02T12:26:48;16.90;76.20
17495;DHT22;8864;51.970;4.614;2024-03-02T12:29:16;16.90;76.00
17495;DHT22;8864;51.970;4.614;2024-03-02T12:31:44;16.90;75.80
17495;DHT22;8864;51.970;4.614;2024-03-02T12:34:12;16.90;75.70
17495;DHT22;8864;51.970;4.614;2024-03-02T12:36:40;16.90;75.30
17495;DHT22;8864;51.970;4.614;2024-03-02T12:39:07;16.90;75.40
17495;DHT22;8864;51.970;4.614;2024-03-02T12:41:36;16.90;75.20
17495;DHT22;8864;51.970;4.614;2024-03-02T12:44:04;16.90;75.10
17495;DHT22;8864;51.970;4.614;2024-03-02T12:46:31;16.90;75.10
17495;DHT22;8864;51.970;4.614;2024-03-02T12:49:07;16.90;74.90
17495;DHT22;8864;51.970;4.614;2024-03-02T12:51:35;16.90;74.90
17495;DHT22;8864;51.970;4.614;2024-03-02T12:54:03;16.90;74.80
17495;DHT22;8864;51.970;4.614;2024-03-02T12:56:31;16.90;74.60
17495;DHT22;8864;51.970;4.614;2024-03-02T12:58:59;16.90;74.50
17495;DHT22;8864;51.970;4.614;2024-03-02T13:01:26;16.90;74.60
17495;DHT22;8864;51.970;4.614;2024-03-02T13:03:53;16.90;74.30
17495;DHT22;8864;51.970;4.614;2024-03-02T13:06:23;16.90;74.20
17495;DHT22;8864;51.970;4.614;2024-03-02T13:08:53;16.90;74.20
17495;DHT22;8864;51.970;4.614;2024-03-02T13:11:21;16.90;74.00
17495;DHT22;8864;51.970;4.614;2024-03-02T13:13:48;16.90;73.80
17495;DHT22;8864;51.970;4.614;2024-03-02T13:16:17;16.90;73.60
17495;DHT22;8864;51.970;4.614;2024-03-02T13:18:45;16.90;73.60
17495;DHT22;8864;51.970;4.614;2024-03-02T13:21:12;16.90;73.60
17495;DHT22;8864;51.970;4.614;2024-03-02T13:23:41;17.00;73.60
17495;DHT22;8864;51.970;4.614;2024-03-02T13:26:08;17.00;73.40
17495;DHT22;8864;51.970;4.614;2024-03-02T13:28:38;16.90;73.40
17495;DHT22;8864;51.970;4.614;2024-03-02T13:31:05;17.00;73.40
17495;DHT22;8864;51.970;4.614;2024-03-02T13:33:32;17.00;73.30
17495;DHT22;8864;51.970;4.614;2024-03-02T13:36:00;17.00;73.30
17495;DHT22;8864;51.970;4.614;2024-03-02T13:38:28;17.00;73.30
17495;DHT22;8864;51.970;4.614;2024-03-02T13:40:56;17.00;73.30
17495;DHT22;8864;51.970;4.614;2024-03-02T13:43:24;17.00;73.10
17495;DHT22;8864;51.970;4.614;2024-03-02T13:45:51;17.10;73.10
17495;DHT22;8864;51.970;4.614;2024-03-02T13:48:19;17.10;73.10
17495;DHT22;8864;51.970;4.614;2024-03-02T13:50:46;17.10;73.10
17495;DHT22;8864;51.970;4.614;2024-03-02T13:53:13;17.10;73.00
17495;DHT22;8864;51.970;4.614;2024-03-02T13:55:40;17.10;72.90
17495;DHT22;8864;51.970;4.614;2024-03-02T13:58:10;17.10;73.00
17495;DHT22;8864;51.970;4.614;2024-03-02T14:00:39;17.10;72.80
17495;DHT22;8864;51.970;4.614;2024-03-02T14:03:06;17.10;72.80
17495;DHT22;8864;51.970;4.614;2024-03-02T14:05:33;17.10;72.80
17495;DHT22;8864;51.970;4.614;2024-03-02T14:08:00;17.10;72.80
17495;DHT22;8864;51.970;4.614;2024-03-02T14:10:27;17.10;72.80
17495;DHT22;8864;51.970;4.614;2024-03-02T14:12:55;17.10;72.80
17495;DHT22;8864;51.970;4.614;2024-03-02T14:15:23;17.10;72.80
17495;DHT22;8864;51.970;4.614;2024-03-02T14:17:50;17.10;72.80
17495;DHT22;8864;51.970;4.614;2024-03-02T14:20:18;17.10;72.60
17495;DHT22;8864;51.970;4.614;2024-03-02T14:22:48;17.10;72.60
17495;DHT22;8864;51.970;4.614;2024-03-02T14:25:15;17.10;72.60
17495;DHT22;8864;51.970;4.614;2024-03-02T14:27:41;17.10;72.50
17495;DHT22;8864;51.970;4.614;2024-03-02T14:30:10;17.10;72.50
17495;DHT22;8864;51.970;4.614;2024-03-02T14:32:38;17.10;72.50
17495;DHT22;8864;51.970;4.614;2024-03-02T14:35:06;17.20;72.40
17495;DHT22;8864;51.970;4.614;2024-03-02T14:37:36;17.10;72.30
17495;DHT22;8864;51.970;4.614;2024-03-02T14:40:03;17.20;72.40
17495;DHT22;8864;51.970;4.614;2024-03-02T14:42:32;17.20;72.30
17495;DHT22;8864;51.970;4.614;2024-03-02T14:44:59;17.20;72.30
17495;DHT22;8864;51.970;4.614;2024-03-02T14:47:28;17.20;72.20
17495;DHT22;8864;51.970;4.614;2024-03-02T14:49:57;17.20;72.20
17495;DHT22;8864;51.970;4.614;2024-03-02T14:52:24;17.20;72.20
17495;DHT22;8864;51.970;4.614;2024-03-02T14:54:51;17.20;72.20
17495;DHT22;8864;51.970;4.614;2024-03-02T14:57:18;17.20;72.20
17495;DHT22;8864;51.970;4.614;2024-03-02T14:59:45;17.10;72.20
17495;DHT22;8864;51.970;4.614;2024-03-02T15:02:12;17.10;72.20
17495;DHT22;8864;51.970;4.614;2024-03-02T15:04:39;17.10;72.30
17495;DHT22;8864;51.970;4.614;2024-03-02T15:07:07;17.20;72.50
17495;DHT22;8864;51.970;4.614;2024-03-02T15:09:34;17.10;72.50
17495;DHT22;8864;51.970;4.614;2024-03-02T15:12:02;17.10;72.60
17495;DHT22;8864;51.970;4.614;2024-03-02T15:14:30;17.10;73.10
17495;DHT22;8864;51.970;4.614;2024-03-02T15:16:58;17.10;73.20
17495;DHT22;8864;51.970;4.614;2024-03-02T15:19:25;17.10;73.30
17495;DHT22;8864;51.970;4.614;2024-03-02T15:21:52;17.10;73.40
17495;DHT22;8864;51.970;4.614;2024-03-02T15:24:20;17.10;73.40
17495;DHT22;8864;51.970;4.614;2024-03-02T15:26:47;17.10;73.60
17495;DHT22;8864;51.970;4.614;2024-03-02T15:29:14;17.10;73.60
17495;DHT22;8864;51.970;4.614;2024-03-02T15:31:41;17.10;73.70
17495;DHT22;8864;51.970;4.614;2024-03-02T15:34:08;17.10;73.80
17495;DHT22;8864;51.970;4.614;2024-03-02T15:36:35;17.10;73.90
17495;DHT22;8864;51.970;4.614;2024-03-02T15:39:02;17.10;73.90
17495;DHT22;8864;51.970;4.614;2024-03-02T15:41:35;17.10;74.00
17495;DHT22;8864;51.970;4.614;2024-03-02T15:44:02;17.10;74.00
17495;DHT22;8864;51.970;4.614;2024-03-02T15:46:30;17.10;74.20
17495;DHT22;8864;51.970;4.614;2024-03-02T15:48:57;17.10;74.20
17495;DHT22;8864;51.970;4.614;2024-03-02T15:51:25;17.10;74.20